Time;durP1;ratioP1;P1;durP2;ratioP2;P2;SDS_P1;SDS_P2;PMS_P1;PMS_P2;Temp;Humidity;BMP_temperature;BMP_pressure;BME280_temperature;BME280_humidity;BME280_pressure;Samples;Min_cycle;Max_cycle;Signal;HPM_P1;HPM_P2
2022/06/22 00:00:00;;;;;;;16.05;9.23;;;13.00;99.90;;;;;;6248800;22;20019;-89
2022/06/22 00:02:50;;;;;;;13.93;8.55;;;14.10;99.90;;;;;;6248975;22;20094;-89
2022/06/22 00:05:49;;;;;;;16.30;8.48;;;12.90;99.90;;;;;;6275131;22;20471;-89
2022/06/22 00:08:38;;;;;;;16.42;8.93;;;13.20;99.90;;;;;;6249667;22;20076;-89
2022/06/22 00:11:20;;;;;;;16.85;8.00;;;13.40;99.90;;;;;;6247205;22;20479;-88
2022/06/22 00:14:02;;;;;;;17.85;8.48;;;13.60;99.90;;;;;;6248223;22;20023;-89
2022/06/22 00:16:47;;;;;;;23.17;8.40;;;13.40;99.90;;;;;;6276384;22;20015;-89
2022/06/22 00:19:34;;;;;;;18.88;8.45;;;12.60;99.90;;;;;;6276075;22;20433;-88
2022/06/22 00:22:00;;;;;;;16.92;9.45;;;12.20;99.90;;;;;;6248677;22;20023;-89
2022/06/22 00:24:25;;;;;;;18.25;9.80;;;12.40;99.90;;;;;;6277117;22;20003;-89
2022/06/22 00:27:07;;;;;;;16.80;8.70;;;12.40;99.90;;;;;;6248559;22;20019;-89
2022/06/22 00:29:38;;;;;;;15.50;9.23;;;12.30;99.90;;;;;;6249931;22;20448;-89
2022/06/22 00:32:28;;;;;;;15.93;8.07;;;12.30;99.90;;;;;;6276082;22;20012;-88
2022/06/22 00:34:53;;;;;;;19.40;9.30;;;12.20;99.90;;;;;;6275910;22;20012;-88
2022/06/22 00:37:31;;;;;;;20.45;9.45;;;12.20;99.90;;;;;;6247383;22;20127;-89
2022/06/22 00:40:09;;;;;;;16.80;9.43;;;12.10;99.90;;;;;;6248018;22;20012;-89
2022/06/22 00:42:50;;;;;;;19.25;9.52;;;12.90;99.90;;;;;;6276625;22;20016;-88
2022/06/22 00:45:37;;;;;;;16.02;8.88;;;12.00;99.90;;;;;;6248786;22;20475;-89
2022/06/22 00:48:45;;;;;;;19.00;8.57;;;11.60;99.90;;;;;;6247728;22;20395;-88
2022/06/22 00:51:37;;;;;;;17.30;9.10;;;11.50;99.90;;;;;;6249671;22;20015;-89
2022/06/22 00:54:31;;;;;;;15.63;9.13;;;12.60;99.90;;;;;;6262756;22;20019;-88
2022/06/22 00:57:33;;;;;;;18.92;9.05;;;12.80;99.90;;;;;;6268892;22;19996;-88
2022/06/22 01:00:21;;;;;;;20.05;10.45;;;11.80;99.90;;;;;;6255215;22;20015;-86
2022/06/22 01:03:18;;;;;;;17.02;9.32;;;11.50;99.90;;;;;;6250879;22;20458;-89
2022/06/22 01:06:09;;;;;;;16.63;10.05;;;11.80;99.90;;;;;;6250318;22;20077;-89
2022/06/22 01:09:11;;;;;;;16.75;9.30;;;11.50;99.90;;;;;;6249077;22;20470;-88
2022/06/22 01:12:19;;;;;;;21.42;10.50;;;11.60;99.90;;;;;;6276617;22;20340;-89
2022/06/22 01:15:16;;;;;;;17.65;9.30;;;11.50;99.90;;;;;;6276276;22;20012;-88
2022/06/22 01:18:20;;;;;;;17.08;10.07;;;11.50;99.90;;;;;;6248882;22;20022;-89
2022/06/22 01:21:09;;;;;;;15.25;9.02;;;11.50;99.90;;;;;;6123649;23;20018;-89
2022/06/22 01:24:20;;;;;;;18.33;10.15;;;11.40;99.90;;;;;;6244767;22;20051;-89
2022/06/22 01:27:17;;;;;;;17.98;9.70;;;10.80;99.90;;;;;;6276299;22;20050;-89
2022/06/22 01:30:00;;;;;;;17.08;9.80;;;11.30;99.90;;;;;;6274548;22;20026;-89
2022/06/22 01:32:53;;;;;;;16.58;10.10;;;11.80;99.90;;;;;;6248851;22;20012;-89
2022/06/22 01:35:39;;;;;;;18.33;9.82;;;11.10;99.90;;;;;;6249218;22;20322;-88
2022/06/22 01:38:45;;;;;;;17.92;10.30;;;11.10;99.90;;;;;;6248524;22;20022;-89
2022/06/22 01:41:55;;;;;;;17.63;9.85;;;11.20;99.90;;;;;;6275002;22;20452;-89
2022/06/22 01:44:42;;;;;;;18.35;10.52;;;11.10;99.90;;;;;;6247789;22;20016;-89
2022/06/22 01:47:47;;;;;;;18.98;9.80;;;11.00;99.90;;;;;;6249116;22;20363;-89
2022/06/22 01:50:34;;;;;;;18.27;10.50;;;11.00;99.90;;;;;;6275135;22;20585;-89
2022/06/22 01:53:33;;;;;;;19.80;10.20;;;10.80;99.90;;;;;;6248215;22;20027;-88
2022/06/22 01:56:07;;;;;;;16.33;9.85;;;11.00;99.90;;;;;;6248527;22;20011;-89
2022/06/22 01:58:40;;;;;;;19.00;9.25;;;10.90;99.90;;;;;;6275740;22;20016;-89
2022/06/22 02:01:26;;;;;;;18.05;10.15;;;10.90;99.90;;;;;;6248678;22;20034;-89
2022/06/22 02:04:11;;;;;;;18.48;9.93;;;10.90;99.90;;;;;;6246958;22;20020;-89
2022/06/22 02:10:11;;;;;;;16.83;9.93;;;10.80;99.90;;;;;;6241408;22;20019;-89
2022/06/22 02:12:45;;;;;;;20.95;10.48;;;10.70;99.90;;;;;;6275311;22;20435;-89
2022/06/22 02:15:20;;;;;;;21.10;10.73;;;10.60;99.90;;;;;;6276390;22;20008;-90
2022/06/22 02:17:46;;;;;;;16.67;10.07;;;10.60;99.90;;;;;;6274835;22;20343;-89
2022/06/22 02:20:18;;;;;;;17.52;10.23;;;10.60;99.90;;;;;;6249075;22;20062;-89
2022/06/22 02:22:49;;;;;;;18.27;10.10;;;10.50;99.90;;;;;;6248624;22;20024;-89
2022/06/22 02:25:17;;;;;;;19.92;10.30;;;10.50;99.90;;;;;;6275196;22;20015;-89
2022/06/22 02:27:43;;;;;;;18.30;10.25;;;10.50;99.90;;;;;;6248234;22;20078;-89
2022/06/22 02:30:09;;;;;;;17.10;9.55;;;10.40;99.90;;;;;;6248742;22;20440;-88
2022/06/22 02:32:41;;;;;;;19.75;10.13;;;10.20;99.90;;;;;;6247765;22;20020;-89
2022/06/22 02:35:09;;;;;;;19.77;10.45;;;10.40;99.90;;;;;;6248351;22;20389;-89
2022/06/22 02:37:40;;;;;;;18.20;9.57;;;10.40;99.90;;;;;;6248490;22;20058;-88
2022/06/22 02:40:14;;;;;;;19.20;9.82;;;10.40;99.90;;;;;;6247324;22;20012;-89
2022/06/22 02:45:43;;;;;;;15.30;8.88;;;10.30;99.90;;;;;;6127921;23;20029;-89
2022/06/22 02:48:25;;;;;;;17.02;9.73;;;10.30;99.90;;;;;;6249928;22;20018;-89
2022/06/22 02:51:33;;;;;;;16.92;9.48;;;10.30;99.90;;;;;;6248793;22;20401;-89
2022/06/22 02:54:04;;;;;;;16.08;9.57;;;10.20;99.90;;;;;;6143211;22;20020;-89
2022/06/22 02:56:35;;;;;;;17.90;8.95;;;10.20;99.90;;;;;;6276335;22;20126;-89
2022/06/22 02:59:01;;;;;;;16.55;9.35;;;10.10;99.90;;;;;;6248298;22;20020;-89
2022/06/22 03:01:32;;;;;;;17.98;9.57;;;10.10;99.90;;;;;;6273861;22;20107;-89
2022/06/22 03:04:04;;;;;;;17.13;10.25;;;10.10;99.90;;;;;;6248395;22;20062;-89
2022/06/22 03:06:34;;;;;;;18.42;9.70;;;10.10;99.90;;;;;;6252343;22;20048;-87
2022/06/22 03:09:02;;;;;;;16.70;9.70;;;10.10;99.90;;;;;;6275916;22;20026;-89
2022/06/22 03:11:28;;;;;;;18.42;10.27;;;10.10;99.90;;;;;;6276830;22;20041;-89
2022/06/22 03:14:11;;;;;;;16.58;9.98;;;10.10;99.90;;;;;;6249137;22;20016;-88
2022/06/22 03:16:40;;;;;;;16.52;9.13;;;10.00;99.90;;;;;;6283149;22;20062;-89
2022/06/22 03:19:11;;;;;;;18.20;9.85;;;10.00;99.90;;;;;;6252094;22;20043;-89
2022/06/22 03:21:38;;;;;;;19.08;10.68;;;10.00;99.90;;;;;;6249225;22;20339;-89
2022/06/22 03:24:30;;;;;;;20.13;10.07;;;10.00;99.90;;;;;;6249797;22;20359;-89
2022/06/22 03:27:01;;;;;;;17.80;9.80;;;10.00;99.90;;;;;;6255775;22;20015;-89
2022/06/22 03:29:33;;;;;;;16.83;9.60;;;10.00;99.90;;;;;;6277134;22;20016;-89
2022/06/22 03:32:22;;;;;;;18.55;10.15;;;10.00;99.90;;;;;;6277510;22;20083;-89
2022/06/22 03:34:53;;;;;;;16.27;9.57;;;10.00;99.90;;;;;;6277423;22;20042;-89
2022/06/22 03:37:25;;;;;;;21.20;9.40;;;10.00;99.90;;;;;;6249435;22;20344;-89
2022/06/22 03:40:07;;;;;;;17.98;10.23;;;10.00;99.90;;;;;;6277775;22;20011;-89
2022/06/22 03:42:38;;;;;;;17.48;10.07;;;10.10;99.90;;;;;;6276531;22;20015;-89
2022/06/22 03:45:28;;;;;;;18.55;10.25;;;10.10;99.90;;;;;;6277429;22;20019;-89
2022/06/22 03:48:03;;;;;;;18.25;10.80;;;10.10;99.90;;;;;;6274584;22;20083;-89
2022/06/22 03:50:56;;;;;;;18.38;10.45;;;10.10;99.90;;;;;;6251011;22;20026;-89
2022/06/22 03:53:38;;;;;;;20.67;11.43;;;10.20;99.90;;;;;;6281564;22;20000;-88
2022/06/22 03:56:10;;;;;;;20.05;11.25;;;10.20;99.90;;;;;;6289606;22;20063;-88
2022/06/22 03:58:39;;;;;;;20.35;12.13;;;10.20;99.90;;;;;;6290868;22;20065;-89
2022/06/22 04:01:05;;;;;;;19.77;11.77;;;10.90;99.90;;;;;;6250914;22;20020;-89
2022/06/22 04:03:33;;;;;;;23.17;12.82;;;10.80;99.90;;;;;;6278041;22;20016;-88
2022/06/22 04:06:03;;;;;;;23.52;12.48;;;10.30;99.90;;;;;;6278544;22;20900;-89
2022/06/22 04:08:33;;;;;;;28.15;13.07;;;10.80;99.90;;;;;;6248806;22;20019;-89
2022/06/22 04:11:10;;;;;;;26.95;12.20;;;10.50;99.90;;;;;;6275983;22;20440;-89
2022/06/22 04:13:42;;;;;;;22.23;12.82;;;10.60;99.90;;;;;;6277264;22;20020;-89
2022/06/22 04:16:16;;;;;;;23.70;12.30;;;10.50;99.90;;;;;;6277279;22;20094;-89
2022/06/22 04:18:56;;;;;;;23.90;12.63;;;10.60;99.90;;;;;;6275743;22;20623;-89
2022/06/22 04:21:44;;;;;;;20.75;11.35;;;10.60;99.90;;;;;;6277288;22;20016;-89
2022/06/22 04:24:15;;;;;;;21.10;11.68;;;10.70;99.90;;;;;;6270630;22;20032;-87
2022/06/22 04:26:59;;;;;;;22.98;11.52;;;10.70;99.90;;;;;;6249745;22;20098;-88
2022/06/22 04:30:17;;;;;;;22.73;11.15;;;11.10;99.90;;;;;;6277338;22;20047;-89
2022/06/22 04:33:11;;;;;;;19.42;11.80;;;10.60;99.90;;;;;;6248733;22;20456;-89
2022/06/22 04:36:22;;;;;;;21.40;11.88;;;10.80;99.90;;;;;;6250436;22;20019;-89
2022/06/22 04:39:12;;;;;;;21.02;12.15;;;11.10;99.90;;;;;;6247640;22;20074;-89
2022/06/22 04:42:11;;;;;;;20.20;12.20;;;10.90;99.90;;;;;;6249582;22;20383;-90
2022/06/22 04:44:52;;;;;;;21.15;12.70;;;12.00;99.90;;;;;;6249353;22;20007;-89
2022/06/22 04:47:53;;;;;;;23.13;12.35;;;10.40;99.90;;;;;;6248899;22;20088;-90
2022/06/22 04:50:40;;;;;;;23.10;12.30;;;11.90;99.90;;;;;;6276371;22;20015;-89
2022/06/22 04:53:37;;;;;;;20.30;12.32;;;12.00;99.90;;;;;;6247752;22;20019;-89
2022/06/22 04:56:24;;;;;;;23.10;12.95;;;10.90;99.90;;;;;;6232838;22;20506;-89
2022/06/22 05:02:19;;;;;;;23.75;13.30;;;11.90;99.90;;;;;;6264164;22;20475;-89
2022/06/22 05:04:49;;;;;;;24.92;13.75;;;11.60;99.90;;;;;;6249210;22;20048;-89
2022/06/22 05:07:30;;;;;;;22.77;12.82;;;11.50;99.90;;;;;;6275607;22;20007;-89
2022/06/22 05:10:08;;;;;;;23.80;13.40;;;11.60;99.90;;;;;;6252599;22;20007;-90
2022/06/22 05:12:53;;;;;;;24.83;13.70;;;11.70;99.90;;;;;;6277234;22;20016;-88
2022/06/22 05:15:23;;;;;;;22.77;13.50;;;11.80;99.90;;;;;;6249060;22;20061;-89
2022/06/22 05:17:49;;;;;;;23.77;13.15;;;11.90;99.90;;;;;;6249563;22;20016;-89
2022/06/22 05:20:18;;;;;;;27.05;14.73;;;11.90;99.90;;;;;;6249800;22;20095;-89
2022/06/22 05:22:43;;;;;;;24.35;14.52;;;12.00;99.90;;;;;;6275152;22;20019;-89
2022/06/22 05:25:13;;;;;;;25.13;14.50;;;12.10;99.90;;;;;;6277376;22;20018;-89
2022/06/22 05:28:04;;;;;;;23.02;14.10;;;12.20;99.90;;;;;;6248768;22;20023;-89
2022/06/22 05:30:35;;;;;;;23.45;13.05;;;12.30;99.90;;;;;;6277438;22;20023;-89
2022/06/22 05:33:09;;;;;;;21.15;13.48;;;12.40;99.90;;;;;;6249365;22;20023;-87
2022/06/22 05:35:44;;;;;;;25.33;14.38;;;12.50;99.90;;;;;;6276041;22;20336;-89
2022/06/22 05:38:10;;;;;;;24.05;14.68;;;12.50;99.90;;;;;;6249367;22;20015;-89
2022/06/22 05:40:39;;;;;;;24.90;14.43;;;12.60;99.90;;;;;;6249192;22;20022;-89
2022/06/22 05:43:07;;;;;;;22.65;13.35;;;12.70;99.90;;;;;;6275414;22;20016;-89
2022/06/22 05:45:56;;;;;;;22.48;13.30;;;12.80;99.90;;;;;;6276235;22;20494;-88
2022/06/22 05:48:26;;;;;;;22.92;12.73;;;12.90;99.90;;;;;;6249235;22;20023;-90
2022/06/22 05:51:01;;;;;;;24.08;13.05;;;13.00;99.90;;;;;;6275107;22;20020;-89
2022/06/22 05:53:51;;;;;;;21.67;12.82;;;13.50;99.90;;;;;;6275582;22;20086;-89
2022/06/22 05:56:33;;;;;;;25.38;13.15;;;13.20;99.90;;;;;;6247863;22;20066;-90
2022/06/22 05:59:26;;;;;;;21.55;12.90;;;13.20;99.90;;;;;;6276014;22;20023;-90
2022/06/22 06:02:05;;;;;;;23.70;13.05;;;13.30;99.90;;;;;;6248733;22;20445;-90
2022/06/22 06:04:37;;;;;;;25.65;12.88;;;13.50;99.90;;;;;;6274746;22;20012;-89
2022/06/22 06:07:14;;;;;;;20.80;11.63;;;14.00;99.90;;;;;;6248845;22;20024;-90
2022/06/22 06:09:40;;;;;;;20.70;12.13;;;13.70;99.90;;;;;;6276519;22;20332;-90
2022/06/22 06:12:24;;;;;;;20.10;12.00;;;14.00;99.90;;;;;;6276234;22;20115;-89
2022/06/22 06:14:52;;;;;;;21.45;11.65;;;13.80;99.90;;;;;;6248782;22;20016;-90
2022/06/22 06:17:32;;;;;;;18.77;11.80;;;13.90;99.90;;;;;;6276046;22;20019;-89
2022/06/22 06:20:00;;;;;;;21.15;12.35;;;14.10;99.90;;;;;;6276172;22;20023;-89
2022/06/22 06:22:28;;;;;;;23.27;12.52;;;14.10;99.90;;;;;;6249037;22;20016;-89
2022/06/22 06:29:08;;;;;;;20.15;11.95;;;14.20;99.90;;;;;;6276330;22;20014;-90
2022/06/22 06:32:21;;;;;;;18.58;9.93;;;14.40;99.90;;;;;;6248096;22;20027;-89
2022/06/22 06:39:24;;;;;;;17.42;10.23;;;14.30;99.90;;;;;;6247269;22;20026;-85
2022/06/22 06:49:10;;;;;;;17.50;9.45;;;14.90;99.90;;;;;;6107179;23;20085;-96
2022/06/22 08:23:46;;;;;;;7.53;2.67;;;20.10;99.90;;;;;;6252048;22;20023;-91
2022/06/22 08:27:00;;;;;;;7.68;2.65;;;20.10;99.90;;;;;;6225796;22;20018;-92
2022/06/22 08:29:35;;;;;;;9.15;2.97;;;20.20;99.90;;;;;;6249020;22;20019;-91
2022/06/22 08:32:38;;;;;;;8.32;2.55;;;20.10;99.90;;;;;;6275706;22;20436;-93
2022/06/22 08:35:49;;;;;;;7.72;2.60;;;20.30;99.90;;;;;;6245407;22;20027;-94
2022/06/22 08:38:55;;;;;;;6.88;2.30;;;20.40;99.90;;;;;;6276221;22;20035;-92
2022/06/22 08:42:10;;;;;;;9.32;2.80;;;20.80;99.90;;;;;;6275995;22;20020;-90
2022/06/22 08:45:25;;;;;;;6.88;2.50;;;20.90;99.90;;;;;;6248974;22;20020;-89
2022/06/22 08:48:44;;;;;;;8.45;2.90;;;21.00;99.90;;;;;;6248393;22;20022;-89
2022/06/22 08:51:48;;;;;;;8.20;3.08;;;20.80;99.60;;;;;;6251975;22;20014;-89
2022/06/22 08:54:54;;;;;;;9.17;3.10;;;21.00;99.90;;;;;;6278308;22;20099;-88
2022/06/22 08:58:00;;;;;;;8.57;2.92;;;21.10;99.60;;;;;;6248862;22;20020;-89
2022/06/22 09:00:51;;;;;;;7.60;2.97;;;21.20;99.80;;;;;;6253059;22;20019;-90
2022/06/22 09:04:14;;;;;;;8.30;3.33;;;21.10;99.90;;;;;;6249375;22;20024;-88
2022/06/22 09:10:10;;;;;;;;;;;;;;;;;;;;;
2022/06/22 09:13:53;;;;;;;8.82;2.90;;;21.30;99.50;;;;;;6156676;22;20073;-90
2022/06/22 09:17:10;;;;;;;8.10;2.63;;;21.50;98.30;;;;;;6248288;22;20042;-89
2022/06/22 09:20:06;;;;;;;7.82;2.50;;;21.70;97.30;;;;;;6247074;22;20020;-88
2022/06/22 09:23:09;;;;;;;7.50;2.60;;;21.70;97.20;;;;;;6248950;22;20099;-89
2022/06/22 09:26:31;;;;;;;7.25;2.80;;;21.50;94.80;;;;;;6249391;22;20114;-89
2022/06/22 09:29:51;;;;;;;8.77;2.80;;;22.00;97.30;;;;;;6267953;22;20566;-89
2022/06/22 09:33:03;;;;;;;10.25;3.05;;;22.00;95.80;;;;;;6250007;22;20011;-92
2022/06/22 09:38:41;;;;;;;8.95;2.78;;;22.10;96.00;;;;;;6272892;22;20031;-91
2022/06/22 09:42:02;;;;;;;6.72;2.40;;;22.00;94.20;;;;;;6275310;22;20172;-91
2022/06/22 09:48:39;;;;;;;9.02;2.60;;;21.80;92.50;;;;;;6276727;22;20023;-90
2022/06/22 09:52:02;;;;;;;8.63;2.83;;;22.10;94.10;;;;;;6254431;22;20019;-96
2022/06/22 10:01:13;;;;;;;12.40;2.53;;;23.10;92.20;;;;;;6098558;23;20022;-88
2022/06/22 10:04:32;;;;;;;9.60;3.17;;;23.20;92.70;;;;;;6123397;23;20018;-90
2022/06/22 10:07:50;;;;;;;6.80;2.42;;;23.40;92.70;;;;;;6122449;23;20018;-91
2022/06/22 10:11:02;;;;;;;7.30;2.50;;;23.20;92.40;;;;;;6097357;23;20057;-88
2022/06/22 10:14:08;;;;;;;8.18;2.50;;;23.60;92.20;;;;;;6129147;23;20026;-91
2022/06/22 10:17:11;;;;;;;8.13;2.17;;;23.70;90.70;;;;;;6122133;23;20022;-90
2022/06/22 10:19:58;;;;;;;6.88;2.10;;;23.50;90.10;;;;;;6123142;23;20062;-90
2022/06/22 10:49:15;;;;;;;7.70;2.70;;;24.20;87.20;;;;;;6283513;22;20041;-89
2022/06/22 10:52:31;;;;;;;7.55;2.80;;;24.40;86.20;;;;;;6277590;22;20070;-91
2022/06/22 10:55:38;;;;;;;8.45;2.70;;;24.50;86.60;;;;;;6255944;22;20016;-95
2022/06/22 11:02:23;;;;;;;7.95;2.60;;;24.70;85.40;;;;;;6249963;22;20102;-88
2022/06/22 11:09:15;;;;;;;7.72;3.00;;;25.00;86.40;;;;;;6274394;22;20463;-92
2022/06/22 11:19:57;;;;;;;6.60;2.30;;;25.50;82.20;;;;;;6282428;22;20066;-92
2022/06/22 12:05:49;;;;;;;7.43;2.63;;;26.50;78.70;;;;;;6245567;23;20468;-88
2022/06/22 12:08:32;;;;;;;8.15;2.63;;;26.50;77.80;;;;;;6246286;23;20035;-86
2022/06/22 12:33:09;;;;;;;7.35;2.40;;;27.20;73.40;;;;;;6276708;22;20030;-91
2022/06/22 13:04:32;;;;;;;7.88;2.03;;;27.60;71.80;;;;;;6094066;23;20066;-90
2022/06/22 13:07:38;;;;;;;7.35;2.22;;;27.90;72.60;;;;;;6093512;23;20014;-91
2022/06/22 13:14:15;;;;;;;8.32;1.90;;;28.20;69.40;;;;;;6003175;23;20023;-87
2022/06/22 13:17:19;;;;;;;6.75;1.98;;;28.40;69.90;;;;;;6092689;23;20455;-86
2022/06/22 13:20:27;;;;;;;7.95;2.10;;;28.30;69.30;;;;;;6191495;23;20022;-84
2022/06/22 13:23:43;;;;;;;6.97;2.30;;;28.40;69.60;;;;;;6091251;23;20109;-84
2022/06/22 13:53:10;;;;;;;7.45;2.20;;;29.00;68.40;;;;;;6042543;23;20117;-87
2022/06/22 14:01:42;;;;;;;8.90;2.28;;;28.90;67.70;;;;;;6272358;22;20448;-89
2022/06/22 14:12:35;;;;;;;8.32;2.47;;;29.00;64.60;;;;;;6071006;23;20363;-88
2022/06/22 17:33:33;;;;;;;11.85;4.65;;;28.90;77.00;;;;;;6218878;23;20031;-96
2022/06/22 17:43:56;;;;;;;11.25;4.00;;;28.70;78.20;;;;;;5957673;24;20024;-96
2022/06/22 18:06:15;;;;;;;11.43;4.13;;;26.80;82.70;;;;;;6280309;22;20084;-96
2022/06/22 18:21:35;;;;;;;10.35;4.20;;;26.70;83.20;;;;;;6270458;22;20023;-96
2022/06/22 19:10:33;;;;;;;10.13;4.15;;;21.80;95.00;;;;;;6286321;22;20387;-94
2022/06/22 19:17:31;;;;;;;10.68;4.00;;;21.10;98.80;;;;;;6280001;22;20025;-96
2022/06/22 19:20:50;;;;;;;10.02;4.03;;;20.90;99.90;;;;;;6253578;22;20030;-93
2022/06/22 19:23:50;;;;;;;11.25;3.80;;;20.60;99.90;;;;;;6252944;22;20019;-95
2022/06/22 19:26:52;;;;;;;9.90;4.10;;;20.50;99.90;;;;;;6253593;22;20022;-95
2022/06/22 20:22:08;;;;;;;9.73;4.43;;;18.00;99.90;;;;;;6071568;23;20021;-95
2022/06/22 20:25:14;;;;;;;12.57;4.63;;;17.60;99.90;;;;;;6046324;23;20043;-96
2022/06/22 21:36:57;;;;;;;11.57;5.78;;;16.10;99.90;;;;;;6278926;22;20038;-92
2022/06/22 22:40:47;;;;;;;13.73;5.68;;;14.90;99.90;;;;;;6266272;22;20089;-92
2022/06/22 22:44:15;;;;;;;12.35;5.50;;;14.90;99.90;;;;;;6273274;22;20024;-92
2022/06/22 22:47:31;;;;;;;10.35;5.03;;;14.70;99.90;;;;;;6288293;22;20019;-92
2022/06/22 22:50:13;;;;;;;;;;;14.80;99.90;;;;;;6247982;22;20014;-94
2022/06/22 22:53:05;;;;;;;10.93;5.47;;;14.70;99.90;;;;;;6251009;22;19955;-94
2022/06/22 22:55:40;;;;;;;11.82;6.00;;;14.60;99.90;;;;;;6275333;22;20494;-93
2022/06/22 22:58:32;;;;;;;12.25;5.57;;;15.40;99.90;;;;;;6249495;22;20015;-94
2022/06/22 23:00:59;;;;;;;11.57;5.47;;;14.50;99.90;;;;;;6276013;22;20340;-94
2022/06/22 23:03:43;;;;;;;10.57;5.40;;;15.10;99.90;;;;;;6277293;22;20020;-93
2022/06/22 23:06:36;;;;;;;11.68;5.30;;;15.40;99.90;;;;;;6249509;22;20340;-94
2022/06/22 23:12:33;;;;;;;13.13;5.88;;;14.40;99.90;;;;;;6273771;22;20016;-94
2022/06/22 23:16:06;;;;;;;11.18;5.78;;;14.20;99.90;;;;;;6276089;22;20024;-93
2022/06/22 23:22:34;;;;;;;11.40;5.97;;;14.10;99.90;;;;;;6248879;22;20372;-92
2022/06/22 23:25:37;;;;;;;12.05;5.90;;;14.20;99.90;;;;;;6274243;22;20024;-91
2022/06/22 23:28:07;;;;;;;12.23;5.82;;;14.10;99.90;;;;;;6276980;22;20024;-91
2022/06/22 23:31:36;;;;;;;10.68;5.50;;;15.00;99.90;;;;;;6252139;22;20011;-92
2022/06/22 23:34:30;;;;;;;11.85;5.60;;;14.20;99.90;;;;;;6124972;23;20018;-92
2022/06/22 23:37:42;;;;;;;12.27;5.72;;;14.10;99.90;;;;;;6125272;23;20097;-92
2022/06/22 23:40:28;;;;;;;12.25;6.50;;;14.10;99.90;;;;;;6126605;23;20029;-91
2022/06/22 23:43:35;;;;;;;12.52;6.05;;;14.00;99.90;;;;;;6125249;23;20018;-91
2022/06/22 23:46:30;;;;;;;11.73;5.82;;;14.00;99.90;;;;;;6065852;23;20098;-91
2022/06/22 23:49:16;;;;;;;10.52;5.55;;;14.20;99.90;;;;;;6066886;23;20038;-91
2022/06/22 23:52:08;;;;;;;12.90;5.95;;;14.20;99.90;;;;;;6099828;23;20121;-91
2022/06/22 23:54:52;;;;;;;11.63;5.63;;;13.90;99.90;;;;;;6125926;23;20459;-91
2022/06/22 23:57:53;;;;;;;12.15;5.75;;;14.60;99.90;;;;;;6138957;22;20069;-91
